createdAt,value
2018-07-15T00:01:07.162Z,69.93
2018-07-15T00:03:35.421Z,69.93
2018-07-15T00:06:03.718Z,71.14
2018-07-15T00:08:32.008Z,70.46
2018-07-15T00:11:00.288Z,70.59
2018-07-15T00:13:28.593Z,71.42
2018-07-15T00:15:56.889Z,71.25
2018-07-15T00:18:25.176Z,70.82
2018-07-15T00:20:53.448Z,70.52
2018-07-15T00:23:21.735Z,72.05
2018-07-15T00:25:50.223Z,70.84
2018-07-15T00:28:18.537Z,71.53
2018-07-15T00:30:46.861Z,71.78
2018-07-15T00:33:15.137Z,71.98
2018-07-15T00:35:43.488Z,71.58
2018-07-15T00:38:11.847Z,72.88
2018-07-15T00:40:40.135Z,72.85
2018-07-15T00:43:08.737Z,72.40
2018-07-15T00:45:37.024Z,72.83
2018-07-15T00:48:05.347Z,72.63
2018-07-15T00:50:33.595Z,73.53
2018-07-15T00:53:01.958Z,73.66
2018-07-15T00:55:30.390Z,73.74
2018-07-15T00:57:58.663Z,73.70
2018-07-15T01:00:32.440Z,73.32
2018-07-15T01:03:00.704Z,74.08
2018-07-15T01:05:28.953Z,73.88
2018-07-15T01:07:57.293Z,73.20
2018-07-15T01:10:25.579Z,73.79
2018-07-15T01:12:53.942Z,74.07
2018-07-15T01:15:22.229Z,74.03
2018-07-15T01:17:50.565Z,74.31
2018-07-15T01:20:18.797Z,73.70
2018-07-15T01:22:47.067Z,74.51
2018-07-15T01:25:15.415Z,74.21
2018-07-15T01:27:43.673Z,74.65
2018-07-15T01:30:12.106Z,74.41
2018-07-15T01:32:40.394Z,74.81
2018-07-15T01:35:08.902Z,74.22
2018-07-15T01:37:37.185Z,74.51
2018-07-15T01:40:05.428Z,74.90
2018-07-15T01:42:33.762Z,75.40
2018-07-15T01:45:02.020Z,74.04
2018-07-15T01:47:30.291Z,74.19
2018-07-15T01:49:58.588Z,75.27
2018-07-15T01:52:26.850Z,75.34
2018-07-15T01:54:55.132Z,75.53
2018-07-15T01:57:23.549Z,75.73
2018-07-15T01:59:51.791Z,74.59
2018-07-15T02:02:20.039Z,74.60
2018-07-15T02:04:48.308Z,74.35
2018-07-15T02:07:16.582Z,75.51
2018-07-15T02:09:44.909Z,76.27
2018-07-15T02:12:13.216Z,76.16
2018-07-15T02:14:41.502Z,76.23
2018-07-15T02:17:10.099Z,76.70
2018-07-15T02:19:38.346Z,76.13
2018-07-15T02:22:06.602Z,76.36
2018-07-15T02:24:34.889Z,76.63
2018-07-15T02:27:03.194Z,75.37
2018-07-15T02:29:31.673Z,76.10
2018-07-15T02:31:59.917Z,76.26
2018-07-15T02:34:28.225Z,76.18
2018-07-15T02:36:56.498Z,75.85
2018-07-15T02:39:24.784Z,76.66
2018-07-15T02:41:53.022Z,76.58
2018-07-15T02:44:21.358Z,77.11
2018-07-15T02:46:49.722Z,77.41
2018-07-15T02:49:18.016Z,76.85
2018-07-15T02:51:46.409Z,77.10
2018-07-15T02:54:14.903Z,76.87
2018-07-15T02:56:43.163Z,77.17
2018-07-15T02:59:11.511Z,76.69
2018-07-15T03:01:39.795Z,77.47
2018-07-15T03:04:08.242Z,77.01
2018-07-15T03:06:36.517Z,77.95
2018-07-15T03:09:07.027Z,76.56
2018-07-15T03:11:35.331Z,77.28
2018-07-15T03:14:03.628Z,77.45
2018-07-15T03:16:31.865Z,78.58
2018-07-15T03:19:00.160Z,78.47
2018-07-15T03:21:28.459Z,78.04
2018-07-15T03:23:56.812Z,78.21
2018-07-15T03:26:25.104Z,77.97
2018-07-15T03:28:53.406Z,77.76
2018-07-15T03:31:21.761Z,77.45
2018-07-15T03:33:50.164Z,77.31
2018-07-15T03:36:18.432Z,76.71
2018-07-15T03:38:46.665Z,77.46
2018-07-15T03:41:15.318Z,77.30
2018-07-15T03:43:43.622Z,77.64
2018-07-15T03:46:11.878Z,77.76
2018-07-15T03:48:40.149Z,77.22
2018-07-15T03:51:08.508Z,77.48
2018-07-15T03:53:36.808Z,77.36
2018-07-15T03:56:05.133Z,76.89
2018-07-15T03:58:33.620Z,77.16
2018-07-15T04:01:01.903Z,76.82
2018-07-15T04:03:30.194Z,77.79
2018-07-15T04:05:58.545Z,77.35
2018-07-15T04:08:26.833Z,77.91
2018-07-15T04:10:55.099Z,77.86
2018-07-15T04:13:23.384Z,76.85
2018-07-15T04:15:52.287Z,77.18
2018-07-15T04:18:20.529Z,76.89
2018-07-15T04:20:48.792Z,76.15
2018-07-15T04:23:17.268Z,75.89
2018-07-15T04:25:45.835Z,75.48
2018-07-15T04:28:14.385Z,76.38
2018-07-15T04:30:42.664Z,75.62
2018-07-15T04:33:10.917Z,75.92
2018-07-15T04:35:39.575Z,76.35
2018-07-15T04:38:07.863Z,75.24
2018-07-15T04:40:36.221Z,75.80
2018-07-15T04:43:04.550Z,75.41
2018-07-15T04:45:33.182Z,74.42
2018-07-15T04:48:01.461Z,74.43
2018-07-15T04:50:29.716Z,74.95
2018-07-15T04:52:58.005Z,75.13
2018-07-15T04:55:26.289Z,74.12
2018-07-15T04:57:54.574Z,75.01
2018-07-15T05:00:22.852Z,74.47
2018-07-15T05:02:51.121Z,74.63
2018-07-15T05:05:19.742Z,73.43
2018-07-15T05:07:48.004Z,73.37
2018-07-15T05:10:16.276Z,73.52
2018-07-15T05:12:44.630Z,72.78
2018-07-15T05:15:12.878Z,73.75
2018-07-15T05:17:41.153Z,73.09
2018-07-15T05:20:09.412Z,72.94
2018-07-15T05:22:37.744Z,72.79
2018-07-15T05:25:06.172Z,72.31
2018-07-15T05:27:34.430Z,72.25
2018-07-15T05:30:02.678Z,72.45
2018-07-15T05:32:31.955Z,71.70
2018-07-15T05:35:00.263Z,70.91
2018-07-15T05:37:28.851Z,71.01
2018-07-15T05:39:57.203Z,70.24
2018-07-15T05:42:25.495Z,71.12
2018-07-15T05:44:53.843Z,70.07
2018-07-15T05:47:22.126Z,70.35
2018-07-15T05:49:50.514Z,70.19
2018-07-15T05:52:18.757Z,69.63
2018-07-15T05:54:47.064Z,70.46
2018-07-15T05:57:15.366Z,70.35
2018-07-15T05:59:43.653Z,68.56
2018-07-15T06:02:11.963Z,68.91
2018-07-15T06:04:40.307Z,68.89
2018-07-15T06:07:08.596Z,67.31
2018-07-15T06:09:36.896Z,66.68
2018-07-15T06:12:05.257Z,66.68
2018-07-15T06:14:33.561Z,66.52
2018-07-15T06:17:01.999Z,66.85
2018-07-15T06:19:30.324Z,65.65
2018-07-15T06:21:58.611Z,65.46
2018-07-15T06:24:26.896Z,65.09
2018-07-15T06:26:55.148Z,63.85
2018-07-15T06:29:23.419Z,63.44
2018-07-15T06:31:52.064Z,63.46
2018-07-15T06:34:20.424Z,63.29
2018-07-15T06:36:48.724Z,63.16
2018-07-15T06:39:16.998Z,61.52
2018-07-15T06:41:45.235Z,62.36
2018-07-15T06:44:13.519Z,62.77
2018-07-15T06:46:41.848Z,62.13
2018-07-15T06:49:10.171Z,61.74
2018-07-15T06:51:38.471Z,61.46
2018-07-15T06:54:06.936Z,61.53
2018-07-15T06:56:35.118Z,61.39
2018-07-15T06:59:03.464Z,60.71
2018-07-15T07:01:31.811Z,60.20
2018-07-15T07:04:00.103Z,60.09
2018-07-15T07:06:28.393Z,58.92
2018-07-15T07:08:56.704Z,58.95
2018-07-15T07:11:25.011Z,58.25
2018-07-15T07:13:53.256Z,58.61
2018-07-15T07:16:21.542Z,57.07
2018-07-15T07:18:49.917Z,56.72
2018-07-15T07:21:18.180Z,56.68
2018-07-15T07:23:46.460Z,56.07
2018-07-15T07:26:15.253Z,56.03
2018-07-15T07:28:43.577Z,57.05
2018-07-15T07:31:11.770Z,55.88
2018-07-15T07:33:40.473Z,55.76
2018-07-15T07:36:08.786Z,55.79
2018-07-15T07:38:37.078Z,54.79
2018-07-15T07:41:05.395Z,54.58
2018-07-15T07:43:33.728Z,54.27
2018-07-15T07:46:02.048Z,54.35
2018-07-15T07:48:31.304Z,53.67
2018-07-15T07:50:59.633Z,54.05
2018-07-15T07:53:28.054Z,54.34
2018-07-15T07:55:56.288Z,53.50
2018-07-15T07:58:24.565Z,54.62
2018-07-15T08:00:52.905Z,53.77
2018-07-15T08:03:21.192Z,52.89
2018-07-15T08:05:49.484Z,52.53
2018-07-15T08:08:17.856Z,51.83
2018-07-15T08:10:46.151Z,51.70
2018-07-15T08:13:14.461Z,49.95
2018-07-15T08:15:42.752Z,47.07
2018-07-15T08:18:11.436Z,50.18
2018-07-15T08:20:39.710Z,49.47
2018-07-15T08:23:08.101Z,50.17
2018-07-15T08:25:36.609Z,49.52
2018-07-15T08:28:04.933Z,49.95
2018-07-15T08:30:44.388Z,48.95
2018-07-15T08:33:12.661Z,48.95
2018-07-15T08:35:41.178Z,47.82
2018-07-15T08:38:09.645Z,47.33
2018-07-15T08:40:38.043Z,48.70
2018-07-15T08:43:06.461Z,48.24
2018-07-15T08:45:34.774Z,47.00
2018-07-15T08:48:03.418Z,48.17
2018-07-15T08:50:31.690Z,47.78
2018-07-15T08:52:59.953Z,46.06
2018-07-15T08:55:28.225Z,44.55
2018-07-15T08:57:56.525Z,44.40
2018-07-15T09:00:24.815Z,43.09
2018-07-15T09:02:53.127Z,43.31
2018-07-15T09:05:21.494Z,43.73
2018-07-15T09:07:50.195Z,43.62
2018-07-15T09:10:22.086Z,44.64
2018-07-15T09:12:50.373Z,43.91
2018-07-15T09:15:18.669Z,43.19
2018-07-15T09:17:46.986Z,41.64
2018-07-15T09:20:15.248Z,41.57
2018-07-15T09:22:43.895Z,41.95
2018-07-15T09:25:12.213Z,42.89
2018-07-15T09:27:40.510Z,42.80
2018-07-15T09:30:09.091Z,41.70
2018-07-15T09:32:37.576Z,42.41
2018-07-15T09:35:05.860Z,41.87
2018-07-15T09:37:34.159Z,41.35
2018-07-15T09:40:02.563Z,42.46
2018-07-15T09:42:30.811Z,42.07
2018-07-15T09:44:59.107Z,41.19
2018-07-15T09:47:27.405Z,41.08
2018-07-15T09:49:55.685Z,40.87
2018-07-15T09:52:23.988Z,40.73
2018-07-15T09:54:52.295Z,40.77
2018-07-15T09:57:20.619Z,40.17
2018-07-15T09:59:48.959Z,40.47
2018-07-15T10:02:17.219Z,40.04
2018-07-15T10:04:45.568Z,39.63
2018-07-15T10:07:14.050Z,39.50
2018-07-15T10:09:42.357Z,39.73
2018-07-15T10:12:10.586Z,39.51
2018-07-15T10:14:38.916Z,40.47
2018-07-15T10:17:07.568Z,39.61
2018-07-15T10:19:35.855Z,38.24
2018-07-15T10:22:04.176Z,39.64
2018-07-15T10:24:32.428Z,39.05
2018-07-15T10:27:00.699Z,38.17
2018-07-15T10:29:28.975Z,38.80
2018-07-15T10:31:57.286Z,38.50
2018-07-15T10:34:25.540Z,37.97
2018-07-15T10:36:53.804Z,38.06
2018-07-15T10:39:22.157Z,37.42
2018-07-15T10:41:50.468Z,37.31
2018-07-15T10:44:18.762Z,36.18
2018-07-15T10:46:47.115Z,36.71
2018-07-15T10:49:15.363Z,37.17
2018-07-15T10:51:43.686Z,37.16
2018-07-15T10:54:12.110Z,36.92
2018-07-15T10:56:40.366Z,35.90
2018-07-15T10:59:08.749Z,36.14
2018-07-15T11:01:37.104Z,36.03
2018-07-15T11:04:05.450Z,35.54
2018-07-15T11:06:34.096Z,35.31
2018-07-15T11:09:02.471Z,35.84
2018-07-15T11:11:30.778Z,35.20
2018-07-15T11:13:59.075Z,34.25
2018-07-15T11:16:27.474Z,33.92
2018-07-15T11:18:55.848Z,34.50
2018-07-15T11:21:24.119Z,35.55
2018-07-15T11:23:52.382Z,33.62
2018-07-15T11:26:20.677Z,33.81
2018-07-15T11:28:49.275Z,34.63
2018-07-15T11:31:17.585Z,33.42
2018-07-15T11:33:45.879Z,34.36
2018-07-15T11:36:14.273Z,34.50
2018-07-15T11:38:42.591Z,34.13
2018-07-15T11:41:10.911Z,33.55
2018-07-15T11:43:39.396Z,33.58
2018-07-15T11:46:09.567Z,33.27
2018-07-15T11:48:37.882Z,33.51
2018-07-15T11:51:06.147Z,34.67
2018-07-15T11:53:34.520Z,32.48
2018-07-15T11:56:03.287Z,34.52
2018-07-15T11:58:31.550Z,33.85
2018-07-15T12:00:59.835Z,32.18
2018-07-15T12:03:28.511Z,33.66
2018-07-15T12:05:56.789Z,33.40
2018-07-15T12:08:25.048Z,33.81
2018-07-15T12:10:53.449Z,32.45
2018-07-15T12:13:21.781Z,31.78
2018-07-15T12:15:50.382Z,32.21
2018-07-15T12:18:18.629Z,31.33
2018-07-15T12:20:46.915Z,31.74
2018-07-15T12:23:15.243Z,31.75
2018-07-15T12:25:43.543Z,32.21
2018-07-15T12:28:11.855Z,32.07
2018-07-15T12:30:40.152Z,31.28
2018-07-15T12:33:08.458Z,31.54
2018-07-15T12:35:36.792Z,31.84
2018-07-15T12:38:05.215Z,31.41
2018-07-15T12:40:33.537Z,31.29
2018-07-15T12:43:01.864Z,29.18
2018-07-15T12:45:30.127Z,29.21
2018-07-15T12:47:58.403Z,29.66
2018-07-15T12:50:26.708Z,27.98
2018-07-15T12:52:54.985Z,26.75
2018-07-15T12:55:23.296Z,27.03
2018-07-15T12:57:51.590Z,27.51
2018-07-15T13:00:19.961Z,26.93
2018-07-15T13:02:48.234Z,26.02
2018-07-15T13:05:16.584Z,26.49
2018-07-15T13:07:45.040Z,25.25
2018-07-15T13:10:13.293Z,26.59
2018-07-15T13:12:41.641Z,27.96
2018-07-15T13:15:09.899Z,26.52
2018-07-15T13:17:38.294Z,26.76
2018-07-15T13:20:06.734Z,27.06
2018-07-15T13:22:35.005Z,24.79
2018-07-15T13:25:03.477Z,25.05
2018-07-15T13:27:32.009Z,26.84
2018-07-15T13:30:00.424Z,25.93
2018-07-15T13:32:29.726Z,24.24
2018-07-15T13:34:58.189Z,27.84
2018-07-15T13:37:26.504Z,27.43
2018-07-15T13:39:54.820Z,26.71
2018-07-15T13:42:23.112Z,24.82
2018-07-15T13:44:51.457Z,23.10
2018-07-15T13:47:19.801Z,22.48
2018-07-15T13:49:48.080Z,22.07
2018-07-15T13:52:16.392Z,23.63
2018-07-15T13:54:44.765Z,23.59
2018-07-15T13:57:13.041Z,23.74
2018-07-15T13:59:41.390Z,23.44
2018-07-15T14:02:09.708Z,22.40
2018-07-15T14:04:37.992Z,21.65
2018-07-15T14:07:06.362Z,22.44
2018-07-15T14:09:35.903Z,21.45
2018-07-15T14:12:04.219Z,21.48
2018-07-15T14:14:32.496Z,22.64
2018-07-15T14:17:00.927Z,23.54
2018-07-15T14:19:29.346Z,25.22
2018-07-15T14:21:57.632Z,22.62
2018-07-15T14:24:25.900Z,20.90
2018-07-15T14:26:54.255Z,21.13
2018-07-15T14:29:22.652Z,20.58
2018-07-15T14:31:51.098Z,21.08
2018-07-15T14:34:19.373Z,21.04
2018-07-15T14:36:47.689Z,24.07
2018-07-15T14:39:16.184Z,22.25
2018-07-15T14:41:44.487Z,21.39
2018-07-15T14:44:12.852Z,19.86
2018-07-15T14:46:41.132Z,18.42
2018-07-15T14:49:09.726Z,19.50
2018-07-15T14:51:37.976Z,20.75
2018-07-15T14:54:06.539Z,20.37
2018-07-15T14:56:34.874Z,23.09
2018-07-15T14:59:03.206Z,23.29
2018-07-15T15:01:31.519Z,22.91
2018-07-15T15:03:59.790Z,24.15
2018-07-15T15:06:28.140Z,24.00
2018-07-15T15:08:56.397Z,23.40
2018-07-15T15:11:24.948Z,21.11
2018-07-15T15:13:53.278Z,21.08
2018-07-15T15:16:21.560Z,20.80
2018-07-15T15:18:49.884Z,17.63
2018-07-15T15:21:18.158Z,19.15
2018-07-15T15:23:46.515Z,17.83
2018-07-15T15:26:14.851Z,20.91
2018-07-15T15:28:43.122Z,21.81
2018-07-15T15:31:15.028Z,22.35
2018-07-15T15:33:43.350Z,20.53
2018-07-15T15:36:11.607Z,21.35
2018-07-15T15:38:39.939Z,20.32
2018-07-15T15:41:08.268Z,20.05
2018-07-15T15:43:36.589Z,18.54
2018-07-15T15:46:04.928Z,18.47
2018-07-15T15:48:33.493Z,18.40
2018-07-15T15:51:01.844Z,19.77
2018-07-15T15:53:30.591Z,19.97
2018-07-15T15:55:58.847Z,19.68
2018-07-15T15:58:27.130Z,18.99
2018-07-15T16:00:55.451Z,19.58
2018-07-15T16:03:24.043Z,19.48
2018-07-15T16:05:52.350Z,17.17
2018-07-15T16:08:20.737Z,19.25
2018-07-15T16:10:49.003Z,17.97
2018-07-15T16:13:17.305Z,18.42
2018-07-15T16:15:45.753Z,18.25
2018-07-15T16:18:14.078Z,19.48
2018-07-15T16:20:42.346Z,20.49
2018-07-15T16:23:10.705Z,20.64
2018-07-15T16:25:38.992Z,19.68
2018-07-15T16:28:07.349Z,20.08
2018-07-15T16:30:35.721Z,19.95
2018-07-15T16:33:04.193Z,20.13
2018-07-15T16:35:32.483Z,18.56
2018-07-15T16:38:00.940Z,20.04
2018-07-15T16:40:29.243Z,19.24
2018-07-15T16:42:57.540Z,18.72
2018-07-15T16:45:25.924Z,21.21
2018-07-15T16:47:54.210Z,21.62
2018-07-15T16:50:22.488Z,18.63
2018-07-15T16:52:50.763Z,20.78
2018-07-15T16:55:19.028Z,18.99
2018-07-15T16:57:47.456Z,20.23
2018-07-15T17:00:15.706Z,18.80
2018-07-15T17:02:44.007Z,21.44
2018-07-15T17:05:12.299Z,18.72
2018-07-15T17:07:40.589Z,18.03
2018-07-15T17:10:08.864Z,22.68
2018-07-15T17:12:37.202Z,21.32
2018-07-15T17:15:05.761Z,19.99
2018-07-15T17:17:34.271Z,21.53
2018-07-15T17:20:02.555Z,21.31
2018-07-15T17:22:30.849Z,22.88
2018-07-15T17:24:59.224Z,21.17
2018-07-15T17:27:27.488Z,21.09
2018-07-15T17:29:55.772Z,19.31
2018-07-15T17:32:24.099Z,21.04
2018-07-15T17:34:52.382Z,20.08
2018-07-15T17:37:20.776Z,21.74
2018-07-15T17:39:49.098Z,20.70
2018-07-15T17:42:17.365Z,21.52
2018-07-15T17:44:45.730Z,20.20
2018-07-15T17:47:14.012Z,22.01
2018-07-15T17:49:42.281Z,22.18
2018-07-15T17:52:10.631Z,22.45
2018-07-15T17:54:38.910Z,21.18
2018-07-15T17:57:07.212Z,20.03
2018-07-15T17:59:35.510Z,20.48
2018-07-15T18:02:03.861Z,23.03
2018-07-15T18:04:32.188Z,23.65
2018-07-15T18:07:00.527Z,22.68
2018-07-15T18:09:28.800Z,21.68
2018-07-15T18:11:57.109Z,21.38
2018-07-15T18:14:25.457Z,22.70
2018-07-15T18:16:53.846Z,23.60
2018-07-15T18:19:22.119Z,23.33
2018-07-15T18:21:50.578Z,24.11
2018-07-15T18:24:18.861Z,25.95
2018-07-15T18:26:47.204Z,27.38
2018-07-15T18:29:15.461Z,28.72
2018-07-15T18:31:43.862Z,27.88
2018-07-15T18:34:12.213Z,28.18
2018-07-15T18:36:40.654Z,28.79
2018-07-15T18:39:09.377Z,27.87
2018-07-15T18:41:37.649Z,28.20
2018-07-15T18:44:06.314Z,28.98
2018-07-15T18:46:34.623Z,29.63
2018-07-15T18:49:03.085Z,28.57
2018-07-15T18:51:31.398Z,28.88
2018-07-15T18:53:59.666Z,29.34
2018-07-15T18:56:30.326Z,29.86
2018-07-15T18:58:58.843Z,29.42
2018-07-15T19:01:27.108Z,30.53
2018-07-15T19:03:55.455Z,30.70
2018-07-15T19:06:28.556Z,32.39
2018-07-15T19:08:57.181Z,32.95
2018-07-15T19:11:25.537Z,33.98
2018-07-15T19:13:54.433Z,32.57
2018-07-15T19:16:22.788Z,33.29
2018-07-15T19:18:51.101Z,33.99
2018-07-15T19:21:19.366Z,34.88
2018-07-15T19:23:47.636Z,34.50
2018-07-15T19:26:16.440Z,34.94
2018-07-15T19:28:44.951Z,34.77
2018-07-15T19:31:13.557Z,36.27
2018-07-15T19:33:42.213Z,36.92
2018-07-15T19:36:10.629Z,37.56
2018-07-15T19:38:39.305Z,37.20
2018-07-15T19:41:07.803Z,37.32
2018-07-15T19:43:37.544Z,37.91
2018-07-15T19:46:05.903Z,37.97
2018-07-15T19:48:34.164Z,38.43
2018-07-15T19:51:02.507Z,39.05
2018-07-15T19:53:30.799Z,39.12
2018-07-15T19:55:59.102Z,40.41
2018-07-15T19:58:27.363Z,40.79
2018-07-15T20:00:55.696Z,40.83
2018-07-15T20:03:23.927Z,40.63
2018-07-15T20:05:52.549Z,41.48
2018-07-15T20:08:20.795Z,41.16
2018-07-15T20:10:49.066Z,41.26
2018-07-15T20:13:20.618Z,42.54
2018-07-15T20:15:48.887Z,42.07
2018-07-15T20:18:17.453Z,42.95
2018-07-15T20:20:45.764Z,43.27
2018-07-15T20:23:14.090Z,42.62
2018-07-15T20:25:42.414Z,43.77
2018-07-15T20:28:10.799Z,43.73
2018-07-15T20:30:39.936Z,43.64
2018-07-15T20:33:08.267Z,44.23
2018-07-15T20:35:36.773Z,44.97
2018-07-15T20:38:05.142Z,44.65
2018-07-15T20:40:33.508Z,45.30
2018-07-15T20:43:01.790Z,45.36
2018-07-15T20:45:30.102Z,46.29
2018-07-15T20:47:58.397Z,45.57
2018-07-15T20:50:26.723Z,46.96
2018-07-15T20:52:55.443Z,46.72
2018-07-15T20:55:23.680Z,46.96
2018-07-15T20:57:52.134Z,47.63
2018-07-15T21:00:21.729Z,48.05
2018-07-15T21:02:50.036Z,47.62
2018-07-15T21:05:18.512Z,48.26
2018-07-15T21:07:46.795Z,48.07
2018-07-15T21:10:15.147Z,47.97
2018-07-15T21:12:43.489Z,47.91
2018-07-15T21:15:11.741Z,48.94
2018-07-15T21:17:39.985Z,49.10
2018-07-15T21:20:08.328Z,49.38
2018-07-15T21:22:36.692Z,48.29
2018-07-15T21:25:04.969Z,49.76
2018-07-15T21:27:33.334Z,50.41
2018-07-15T21:30:01.603Z,50.76
2018-07-15T21:32:30.267Z,50.58
2018-07-15T21:34:58.571Z,51.09
2018-07-15T21:37:26.893Z,51.10
2018-07-15T21:39:55.249Z,51.44
2018-07-15T21:42:23.597Z,52.09
2018-07-15T21:44:51.924Z,51.77
2018-07-15T21:47:20.212Z,51.52
2018-07-15T21:49:48.486Z,52.62
2018-07-15T21:52:16.825Z,51.72
2018-07-15T21:54:45.119Z,51.73
2018-07-15T21:57:13.397Z,52.86
2018-07-15T21:59:41.761Z,52.80
2018-07-15T22:02:10.118Z,52.64
2018-07-15T22:04:38.454Z,53.09
2018-07-15T22:07:18.049Z,53.18
2018-07-15T22:10:03.605Z,52.65
2018-07-15T22:12:31.850Z,53.49
2018-07-15T22:15:00.128Z,53.68
2018-07-15T22:17:28.428Z,53.28
2018-07-15T22:19:56.927Z,54.48
2018-07-15T22:22:25.297Z,54.78
2018-07-15T22:24:53.563Z,54.65
2018-07-15T22:27:21.937Z,55.24
2018-07-15T22:29:50.211Z,55.27
2018-07-15T22:32:18.511Z,54.80
2018-07-15T22:34:46.805Z,55.15
2018-07-15T22:37:15.115Z,55.51
2018-07-15T22:39:43.398Z,56.06
2018-07-15T22:42:11.923Z,56.29
2018-07-15T22:44:40.187Z,56.01
2018-07-15T22:47:08.472Z,55.50
2018-07-15T22:49:36.769Z,55.52
2018-07-15T22:52:05.041Z,56.35
2018-07-15T22:54:33.308Z,56.69
2018-07-15T22:57:01.623Z,56.40
2018-07-15T22:59:29.898Z,55.81
2018-07-15T23:01:58.215Z,56.60
2018-07-15T23:05:40.011Z,56.48
2018-07-15T23:08:08.858Z,56.90
2018-07-15T23:10:37.299Z,57.39
2018-07-15T23:13:06.653Z,57.61
2018-07-15T23:15:35.444Z,57.06
2018-07-15T23:18:03.742Z,56.65
2018-07-15T23:20:32.871Z,58.03
2018-07-15T23:23:02.003Z,57.61
2018-07-15T23:25:30.856Z,57.81
2018-07-15T23:27:59.735Z,57.87
2018-07-15T23:30:28.638Z,57.98
2018-07-15T23:32:56.915Z,57.77
2018-07-15T23:35:25.347Z,58.32
2018-07-15T23:37:53.665Z,59.63
2018-07-15T23:40:21.950Z,58.69
2018-07-15T23:42:50.899Z,58.69
2018-07-15T23:45:19.145Z,58.95
2018-07-15T23:47:47.428Z,60.12
2018-07-15T23:50:15.686Z,60.57
2018-07-15T23:52:43.972Z,59.71
2018-07-15T23:55:12.228Z,60.68
2018-07-15T23:57:40.485Z,60.52
